createdAt,value
2018-11-26T00:03:16.180Z,30.80
2018-11-26T00:07:29.807Z,29.12
2018-11-26T00:11:39.900Z,31.03
2018-11-26T00:15:58.560Z,32.20
2018-11-26T00:20:08.834Z,31.90
2018-11-26T00:24:18.034Z,30.03
2018-11-26T00:28:41.249Z,34.45
2018-11-26T00:32:52.064Z,30.90
2018-11-26T00:37:05.027Z,32.27
2018-11-26T00:51:19.042Z,30.08
2018-11-26T00:55:30.210Z,32.17
2018-11-26T00:59:45.588Z,30.07
2018-11-26T01:03:57.362Z,31.47
2018-11-26T01:08:10.189Z,32.80
2018-11-26T01:12:21.060Z,33.50
2018-11-26T01:16:32.493Z,31.33
2018-11-26T01:20:42.539Z,29.47
2018-11-26T01:24:55.532Z,32.27
2018-11-26T01:29:05.508Z,34.70
2018-11-26T01:33:21.469Z,33.50
2018-11-26T01:37:36.719Z,33.37
2018-11-26T01:41:45.024Z,33.23
2018-11-26T01:45:56.717Z,32.17
2018-11-26T01:50:08.816Z,37.00
2018-11-26T01:54:20.582Z,34.30
2018-11-26T01:58:35.304Z,32.07
2018-11-26T02:02:52.195Z,33.07
2018-11-26T02:07:04.110Z,35.17
2018-11-26T02:11:15.940Z,35.17
2018-11-26T02:15:46.174Z,36.27
2018-11-26T02:19:53.992Z,34.33
2018-11-26T02:24:06.492Z,34.03
2018-11-26T02:28:19.156Z,33.97
2018-11-26T02:32:28.895Z,35.57
2018-11-26T02:36:42.904Z,37.43
2018-11-26T02:40:52.657Z,37.73
2018-11-26T02:45:03.055Z,35.10
2018-11-26T02:49:12.880Z,38.53
2018-11-26T02:53:32.479Z,36.93
2018-11-26T02:57:43.221Z,34.53
2018-11-26T03:11:58.919Z,36.17
2018-11-26T03:16:08.843Z,35.03
2018-11-26T03:20:19.954Z,37.60
2018-11-26T03:24:29.988Z,33.73
2018-11-26T03:28:39.048Z,33.23
2018-11-26T03:32:52.431Z,32.10
2018-11-26T03:37:07.074Z,34.70
2018-11-26T03:41:20.219Z,34.43
2018-11-26T03:45:30.136Z,34.73
2018-11-26T03:49:45.475Z,34.13
2018-11-26T03:53:58.168Z,33.77
2018-11-26T03:58:16.440Z,33.13
2018-11-26T04:02:28.656Z,36.38
2018-11-26T04:06:37.482Z,33.70
2018-11-26T04:10:51.484Z,33.20
2018-11-26T04:15:00.080Z,32.33
2018-11-26T04:19:10.198Z,32.33
2018-11-26T04:23:28.171Z,34.80
2018-11-26T04:27:41.760Z,33.00
2018-11-26T04:32:00.964Z,35.00
2018-11-26T04:36:10.884Z,34.13
2018-11-26T04:40:30.848Z,33.67
2018-11-26T04:44:44.810Z,33.07
2018-11-26T04:48:55.840Z,33.50
2018-11-26T04:53:09.219Z,33.40
2018-11-26T04:57:25.411Z,33.73
2018-11-26T05:01:37.657Z,32.07
2018-11-26T05:05:47.837Z,33.87
2018-11-26T05:10:04.225Z,32.70
2018-11-26T05:14:14.011Z,32.80
2018-11-26T05:18:28.482Z,33.63
2018-11-26T05:22:41.595Z,32.97
2018-11-26T05:26:57.783Z,33.50
2018-11-26T05:45:54.415Z,31.47
2018-11-26T05:50:06.796Z,32.60
2018-11-26T05:54:14.106Z,32.50
2018-11-26T05:58:24.027Z,32.90
2018-11-26T06:02:41.485Z,30.33
2018-11-26T06:06:55.987Z,32.77
2018-11-26T06:11:06.895Z,31.20
2018-11-26T06:15:20.728Z,30.95
2018-11-26T06:19:32.389Z,29.47
2018-11-26T06:23:40.932Z,31.27
2018-11-26T06:27:49.327Z,29.27
2018-11-26T06:32:01.947Z,29.80
2018-11-26T06:36:11.038Z,30.93
2018-11-26T06:40:24.709Z,30.80
2018-11-26T06:44:39.169Z,30.70
2018-11-26T06:48:47.923Z,29.70
2018-11-26T06:53:00.976Z,29.20
2018-11-26T06:57:10.691Z,28.87
2018-11-26T07:01:25.523Z,28.50
2018-11-26T07:05:33.244Z,28.03
2018-11-26T07:09:50.464Z,26.77
2018-11-26T07:14:02.580Z,29.20
2018-11-26T07:18:13.604Z,28.23
2018-11-26T07:22:24.821Z,28.83
2018-11-26T07:26:36.376Z,28.13
2018-11-26T07:30:46.445Z,27.23
2018-11-26T07:35:03.367Z,26.47
2018-11-26T07:39:15.717Z,28.83
2018-11-26T07:43:27.596Z,29.53
2018-11-26T07:47:38.424Z,29.03
2018-11-26T08:02:17.461Z,29.27
2018-11-26T08:06:29.231Z,25.53
2018-11-26T08:10:39.102Z,28.63
2018-11-26T08:14:52.923Z,26.60
2018-11-26T08:19:05.327Z,30.37
2018-11-26T08:23:18.779Z,28.50
2018-11-26T08:27:29.592Z,28.43
2018-11-26T08:31:42.241Z,31.03
2018-11-26T08:36:10.655Z,28.10
2018-11-26T08:40:24.144Z,28.97
2018-11-26T08:44:48.166Z,27.63
2018-11-26T08:49:16.379Z,28.97
2018-11-26T08:53:27.367Z,29.75
2018-11-26T08:57:35.816Z,29.93
2018-11-26T09:01:46.084Z,31.17
2018-11-26T09:06:17.327Z,29.03
2018-11-26T09:10:25.359Z,30.37
2018-11-26T09:14:41.407Z,29.17
2018-11-26T09:18:49.216Z,30.13
2018-11-26T09:23:02.877Z,30.93
2018-11-26T09:27:17.247Z,30.40
2018-11-26T09:31:26.259Z,29.90
2018-11-26T09:35:37.989Z,28.60
2018-11-26T09:39:46.872Z,30.63
2018-11-26T09:43:59.323Z,27.57
2018-11-26T09:48:10.278Z,26.53
2018-11-26T09:52:19.282Z,25.05
2018-11-26T09:56:26.723Z,25.93
2018-11-26T10:00:41.188Z,26.00
2018-11-26T10:04:48.767Z,29.47
2018-11-26T10:09:01.774Z,23.60
2018-11-26T10:13:12.481Z,24.73
2018-11-26T10:17:22.494Z,22.53
2018-11-26T10:31:33.848Z,23.13
2018-11-26T10:35:49.025Z,25.73
2018-11-26T10:40:07.516Z,24.27
2018-11-26T10:44:24.782Z,26.20
2018-11-26T10:48:43.595Z,27.07
2018-11-26T10:53:21.974Z,25.10
2018-11-26T10:57:40.511Z,28.27
2018-11-26T11:02:22.947Z,27.90
2018-11-26T11:06:38.121Z,28.13
2018-11-26T11:10:46.616Z,30.00
2018-11-26T11:14:58.974Z,28.83
2018-11-26T11:19:11.660Z,28.85
2018-11-26T11:23:27.289Z,30.85
2018-11-26T11:27:34.751Z,29.93
2018-11-26T11:31:45.481Z,27.37
2018-11-26T11:35:58.100Z,26.77
2018-11-26T11:40:11.500Z,26.77
2018-11-26T11:44:27.665Z,28.85
2018-11-26T11:48:38.410Z,25.90
2018-11-26T11:52:51.885Z,28.57
2018-11-26T11:57:05.415Z,30.40
2018-11-26T12:01:18.597Z,29.07
2018-11-26T12:05:32.933Z,28.62
2018-11-26T12:09:43.659Z,32.70
2018-11-26T12:13:55.312Z,33.60
2018-11-26T12:18:05.503Z,32.67
2018-11-26T12:22:15.300Z,34.13
2018-11-26T12:26:23.708Z,32.80
2018-11-26T12:30:41.295Z,32.90
2018-11-26T12:34:52.559Z,33.97
2018-11-26T12:53:40.327Z,34.13
2018-11-26T12:57:49.872Z,37.33
2018-11-26T13:01:58.751Z,34.67
2018-11-26T13:06:10.314Z,34.83
2018-11-26T13:10:25.608Z,36.40
2018-11-26T13:14:35.400Z,35.57
2018-11-26T13:18:43.085Z,35.90
2018-11-26T13:22:50.919Z,35.83
2018-11-26T13:27:05.094Z,34.37
2018-11-26T13:31:23.725Z,34.30
2018-11-26T13:35:39.278Z,34.50
2018-11-26T13:39:48.647Z,33.13
2018-11-26T13:43:58.864Z,33.63
2018-11-26T13:48:10.922Z,31.83
2018-11-26T13:52:23.427Z,34.23
2018-11-26T13:56:31.640Z,33.63
2018-11-26T14:00:41.733Z,30.50
2018-11-26T14:04:53.930Z,32.43
2018-11-26T14:09:13.681Z,30.07
2018-11-26T14:13:24.943Z,31.20
2018-11-26T14:17:36.115Z,31.07
2018-11-26T14:21:53.007Z,32.93
2018-11-26T14:26:03.895Z,33.47
2018-11-26T14:30:33.479Z,31.10
2018-11-26T14:34:44.135Z,32.37
2018-11-26T14:38:57.042Z,32.57
2018-11-26T14:43:08.008Z,31.97
2018-11-26T14:47:15.003Z,31.20
2018-11-26T14:51:25.733Z,30.23
2018-11-26T14:55:37.925Z,30.80
2018-11-26T14:59:50.964Z,29.57
2018-11-26T15:04:02.954Z,28.57
2018-11-26T15:08:16.887Z,27.87
2018-11-26T15:12:26.782Z,29.12
2018-11-26T15:16:36.534Z,27.33
2018-11-26T15:35:32.592Z,26.42
2018-11-26T15:39:45.087Z,27.90
2018-11-26T15:43:57.605Z,28.03
2018-11-26T15:48:10.917Z,27.60
2018-11-26T15:52:23.129Z,27.80
2018-11-26T15:56:37.518Z,28.50
2018-11-26T16:00:48.146Z,27.17
2018-11-26T16:04:59.792Z,28.80
2018-11-26T16:09:11.915Z,26.53
2018-11-26T16:13:27.573Z,27.90
2018-11-26T16:17:40.909Z,26.53
2018-11-26T16:21:53.391Z,26.77
2018-11-26T16:26:01.516Z,30.20
2018-11-26T16:30:17.232Z,28.83
2018-11-26T16:34:25.773Z,27.67
2018-11-26T16:38:56.254Z,26.50
2018-11-26T16:43:15.367Z,30.13
2018-11-26T16:47:31.019Z,28.00
2018-11-26T16:51:44.464Z,27.53
2018-11-26T16:55:58.766Z,28.93
2018-11-26T17:00:09.705Z,27.63
2018-11-26T17:04:21.457Z,27.10
2018-11-26T17:08:33.876Z,28.97
2018-11-26T17:12:45.034Z,27.97
2018-11-26T17:16:58.153Z,30.37
2018-11-26T17:21:13.380Z,30.07
2018-11-26T17:25:28.622Z,29.23
2018-11-26T17:29:40.171Z,28.67
2018-11-26T17:33:48.496Z,31.75
2018-11-26T17:37:58.288Z,26.63
2018-11-26T17:56:54.442Z,28.03
2018-11-26T18:01:30.702Z,25.80
2018-11-26T18:05:43.217Z,27.37
